createdAt,value
2019-03-09T00:00:57.937Z,100553.64
2019-03-09T00:03:26.389Z,100546.69
2019-03-09T00:05:54.809Z,100543.10
2019-03-09T00:08:23.272Z,100551.64
2019-03-09T00:10:52.041Z,100548.55
2019-03-09T00:13:20.475Z,100551.91
2019-03-09T00:15:48.887Z,100551.91
2019-03-09T00:18:17.386Z,100554.63
2019-03-09T00:20:45.753Z,100555.98
2019-03-09T00:23:15.832Z,100552.92
2019-03-09T00:26:02.025Z,100549.86
2019-03-09T00:28:37.586Z,100544.41
2019-03-09T00:31:07.639Z,100551.56
2019-03-09T00:33:36.095Z,100544.76
2019-03-09T00:36:04.512Z,100551.22
2019-03-09T00:38:32.957Z,100552.20
2019-03-09T00:41:01.395Z,100544.04
2019-03-09T00:43:29.869Z,100549.14
2019-03-09T00:45:58.665Z,100549.14
2019-03-09T00:48:27.126Z,100546.08
2019-03-09T00:50:55.569Z,100551.14
2019-03-09T00:53:23.986Z,100551.37
2019-03-09T00:55:52.399Z,100536.90
2019-03-09T00:58:20.824Z,100536.41
2019-03-09T01:00:49.273Z,100531.31
2019-03-09T01:03:17.704Z,100520.58
2019-03-09T01:05:46.125Z,100519.22
2019-03-09T01:08:14.572Z,100511.05
2019-03-09T01:10:42.989Z,100505.47
2019-03-09T01:13:11.421Z,100500.33
2019-03-09T01:15:39.839Z,100493.87
2019-03-09T01:18:08.336Z,100488.95
2019-03-09T01:20:36.757Z,100484.50
2019-03-09T01:23:05.305Z,100472.26
2019-03-09T01:25:33.714Z,100469.53
2019-03-09T01:28:02.163Z,100458.66
2019-03-09T01:30:30.654Z,100452.88
2019-03-09T01:32:59.240Z,100449.28
2019-03-09T01:35:27.666Z,100449.28
2019-03-09T01:37:56.078Z,100452.16
2019-03-09T01:40:24.670Z,100456.09
2019-03-09T01:42:53.118Z,100447.09
2019-03-09T01:45:21.562Z,100439.92
2019-03-09T01:47:50.154Z,100435.20
2019-03-09T01:50:18.561Z,100428.89
2019-03-09T01:52:46.981Z,100425.83
2019-03-09T01:55:15.480Z,100425.48
2019-03-09T01:57:43.904Z,100419.89
2019-03-09T02:00:15.396Z,100399.49
2019-03-09T02:02:43.818Z,100398.81
2019-03-09T02:05:12.388Z,100395.75
2019-03-09T02:07:40.784Z,100393.37
2019-03-09T02:10:11.400Z,100391.67
2019-03-09T02:12:40.053Z,100391.83
2019-03-09T02:15:11.533Z,100381.09
2019-03-09T02:17:39.982Z,100386.54
2019-03-09T02:20:18.020Z,100375.81
2019-03-09T02:22:47.187Z,100373.95
2019-03-09T02:25:15.958Z,100363.08
2019-03-09T02:27:44.402Z,100360.70
2019-03-09T02:30:14.686Z,100351.67
2019-03-09T02:32:43.203Z,100345.41
2019-03-09T02:35:13.454Z,100350.84
2019-03-09T02:37:41.897Z,100342.00
2019-03-09T02:40:13.535Z,100348.13
2019-03-09T02:42:41.946Z,100339.09
2019-03-09T02:45:13.419Z,100343.02
2019-03-09T02:47:41.843Z,100332.14
2019-03-09T02:50:15.201Z,100342.00
2019-03-09T02:52:43.687Z,100332.48
2019-03-09T02:55:13.248Z,100341.51
2019-03-09T02:57:41.864Z,100331.50
2019-03-09T03:00:18.933Z,100323.34
2019-03-09T03:02:51.787Z,100309.52
2019-03-09T03:05:20.264Z,100309.67
2019-03-09T03:07:48.729Z,100308.31
2019-03-09T03:10:17.202Z,100301.88
2019-03-09T03:12:45.656Z,100299.17
2019-03-09T03:15:29.029Z,100299.17
2019-03-09T03:17:57.459Z,100282.17
2019-03-09T03:20:25.876Z,100288.66
2019-03-09T03:22:54.325Z,100286.25
2019-03-09T03:25:22.765Z,100272.80
2019-03-09T03:27:51.181Z,100270.95
2019-03-09T03:30:19.651Z,100258.70
2019-03-09T03:32:48.069Z,100273.02
2019-03-09T03:35:16.567Z,100260.78
2019-03-09T03:37:45.005Z,100269.28
2019-03-09T03:40:13.590Z,100270.30
2019-03-09T03:42:42.003Z,100264.86
2019-03-09T03:45:14.562Z,100273.02
2019-03-09T03:47:43.067Z,100268.56
2019-03-09T03:50:11.782Z,100266.87
2019-03-09T03:52:40.218Z,100267.36
2019-03-09T03:55:10.291Z,100265.17
2019-03-09T03:57:38.719Z,100259.20
2019-03-09T04:00:09.968Z,100262.95
2019-03-09T04:02:38.442Z,100259.88
2019-03-09T04:05:07.324Z,100270.77
2019-03-09T04:07:36.402Z,100274.31
2019-03-09T04:10:07.383Z,100285.20
2019-03-09T04:12:35.783Z,100272.77
2019-03-09T04:15:05.172Z,100283.00
2019-03-09T04:17:33.596Z,100285.72
2019-03-09T04:20:02.118Z,100285.13
2019-03-09T04:22:30.529Z,100290.79
2019-03-09T04:24:58.979Z,100292.30
2019-03-09T04:27:27.411Z,100295.02
2019-03-09T04:29:55.812Z,100302.81
2019-03-09T04:32:24.252Z,100298.39
2019-03-09T04:34:52.643Z,100300.73
2019-03-09T04:37:21.077Z,100304.33
2019-03-09T04:39:49.511Z,100307.04
2019-03-09T04:42:17.941Z,100318.41
2019-03-09T04:44:46.371Z,100318.23
2019-03-09T04:47:14.795Z,100320.80
2019-03-09T04:49:43.230Z,100330.80
2019-03-09T04:52:11.651Z,100331.83
2019-03-09T04:54:40.079Z,100331.83
2019-03-09T04:57:08.486Z,100338.25
2019-03-09T04:59:36.930Z,100340.62
2019-03-09T05:02:05.374Z,100341.80
2019-03-09T05:04:42.154Z,100346.22
2019-03-09T05:07:11.719Z,100344.86
2019-03-09T05:10:01.076Z,100337.20
2019-03-09T05:12:29.737Z,100343.66
2019-03-09T05:14:58.147Z,100355.70
2019-03-09T05:17:26.567Z,100348.91
2019-03-09T05:19:54.977Z,100353.47
2019-03-09T05:22:23.407Z,100358.27
2019-03-09T05:24:51.815Z,100346.52
2019-03-09T05:27:20.219Z,100332.22
2019-03-09T05:29:48.649Z,100354.68
2019-03-09T05:32:17.081Z,100338.52
2019-03-09T05:34:45.539Z,100340.03
2019-03-09T05:37:13.973Z,100341.73
2019-03-09T05:39:42.394Z,100335.23
2019-03-09T05:42:10.825Z,100346.98
2019-03-09T05:44:39.252Z,100347.70
2019-03-09T05:47:07.669Z,100342.91
2019-03-09T05:49:36.101Z,100343.05
2019-03-09T05:52:19.537Z,100334.90
2019-03-09T05:54:47.988Z,100345.77
2019-03-09T05:57:16.380Z,100336.26
2019-03-09T05:59:44.791Z,100333.23
2019-03-09T06:02:13.219Z,100342.04
2019-03-09T06:04:41.627Z,100333.54
2019-03-09T06:07:10.053Z,100348.84
2019-03-09T06:09:38.485Z,100356.50
2019-03-09T06:12:06.936Z,100375.19
2019-03-09T06:14:35.361Z,100378.06
2019-03-09T06:17:03.793Z,100379.76
2019-03-09T06:19:32.232Z,100378.73
2019-03-09T06:22:00.657Z,100392.33
2019-03-09T06:24:29.081Z,100390.63
2019-03-09T06:26:57.525Z,100390.14
2019-03-09T06:29:25.965Z,100399.81
2019-03-09T06:32:32.371Z,100386.22
2019-03-09T06:35:00.825Z,100399.44
2019-03-09T06:37:30.577Z,100403.89
2019-03-09T06:39:59.016Z,100417.48
2019-03-09T06:42:30.496Z,100402.53
2019-03-09T06:44:58.921Z,100418.16
2019-03-09T06:47:27.340Z,100415.45
2019-03-09T06:49:55.762Z,100410.88
2019-03-09T06:52:24.174Z,100423.60
2019-03-09T06:54:52.592Z,100426.33
2019-03-09T06:57:21.019Z,100431.12
2019-03-09T06:59:49.450Z,100430.48
2019-03-09T07:02:17.862Z,100425.67
2019-03-09T07:04:46.302Z,100439.62
2019-03-09T07:07:14.728Z,100449.51
2019-03-09T07:09:43.134Z,100456.98
2019-03-09T07:12:11.627Z,100460.38
2019-03-09T07:15:01.168Z,100477.76
2019-03-09T07:17:29.586Z,100482.19
2019-03-09T07:19:58.017Z,100504.28
2019-03-09T07:22:26.444Z,100514.17
2019-03-09T07:24:54.876Z,100523.39
2019-03-09T07:27:23.317Z,100526.11
2019-03-09T07:29:51.749Z,100530.83
2019-03-09T07:32:20.171Z,100533.06
2019-03-09T07:34:48.851Z,100531.55
2019-03-09T07:37:17.297Z,100547.88
2019-03-09T07:39:45.698Z,100544.13
2019-03-09T07:42:14.133Z,100541.91
2019-03-09T07:44:42.575Z,100541.41
2019-03-09T07:47:11.005Z,100523.73
2019-03-09T07:49:39.413Z,100512.86
2019-03-09T07:52:33.370Z,100519.66
2019-03-09T07:55:01.793Z,100510.14
2019-03-09T07:57:30.221Z,100514.07
2019-03-09T07:59:58.651Z,100512.22
2019-03-09T08:02:27.078Z,100521.28
2019-03-09T08:04:55.504Z,100526.56
2019-03-09T08:07:23.916Z,100531.33
2019-03-09T08:09:52.368Z,100529.33
2019-03-09T08:12:20.771Z,100522.88
2019-03-09T08:14:49.192Z,100522.58
2019-03-09T08:17:17.610Z,100517.86
2019-03-09T08:19:46.010Z,100516.69
2019-03-09T08:22:14.435Z,100519.26
2019-03-09T08:24:42.868Z,100521.86
2019-03-09T08:27:11.296Z,100521.56
2019-03-09T08:29:39.700Z,100519.90
2019-03-09T08:32:08.140Z,100522.47
2019-03-09T08:34:36.573Z,100525.88
2019-03-09T08:37:04.964Z,100514.34
2019-03-09T08:39:33.400Z,100525.08
2019-03-09T08:42:01.813Z,100504.19
2019-03-09T08:44:30.266Z,100508.11
2019-03-09T08:46:58.670Z,100506.30
2019-03-09T08:49:27.134Z,100499.53
2019-03-09T08:51:55.540Z,100484.11
2019-03-09T08:54:23.969Z,100485.88
2019-03-09T08:56:52.400Z,100490.55
2019-03-09T08:59:20.861Z,100486.88
2019-03-09T09:01:49.268Z,100503.62
2019-03-09T09:04:17.666Z,100509.47
2019-03-09T09:06:46.108Z,100510.70
2019-03-09T09:09:14.549Z,100524.20
2019-03-09T09:11:43.236Z,100532.47
2019-03-09T09:14:11.614Z,100530.64
2019-03-09T09:16:40.058Z,100530.36
2019-03-09T09:19:08.475Z,100527.86
2019-03-09T09:21:36.919Z,100525.97
2019-03-09T09:24:05.401Z,100523.48
2019-03-09T09:26:33.831Z,100524.78
2019-03-09T09:29:02.258Z,100538.48
2019-03-09T09:31:30.690Z,100530.70
2019-03-09T09:33:59.105Z,100544.70
2019-03-09T09:36:27.540Z,100544.59
2019-03-09T09:38:55.973Z,100529.29
2019-03-09T09:41:24.408Z,100530.83
2019-03-09T09:43:52.808Z,100543.31
2019-03-09T09:46:21.228Z,100538.75
2019-03-09T09:48:49.676Z,100527.86
2019-03-09T09:51:18.111Z,100542.75
2019-03-09T09:53:46.551Z,100523.34
2019-03-09T09:56:14.984Z,100536.53
2019-03-09T09:58:43.492Z,100544.58
2019-03-09T10:01:11.978Z,100544.59
2019-03-09T10:03:40.410Z,100541.91
2019-03-09T10:06:08.921Z,100556.94
2019-03-09T10:08:37.361Z,100555.62
2019-03-09T10:11:05.757Z,100559.55
2019-03-09T10:13:34.372Z,100574.34
2019-03-09T10:16:02.786Z,100587.98
2019-03-09T10:18:31.263Z,100581.16
2019-03-09T10:20:59.683Z,100585.95
2019-03-09T10:23:28.117Z,100595.34
2019-03-09T10:25:56.567Z,100606.75
2019-03-09T10:28:25.024Z,100594.79
2019-03-09T10:30:53.461Z,100596.47
2019-03-09T10:33:24.170Z,100589.31
2019-03-09T10:35:52.097Z,100575.95
2019-03-09T10:38:20.519Z,100575.13
2019-03-09T10:40:48.973Z,100584.30
2019-03-09T10:43:17.388Z,100582.10
2019-03-09T10:45:45.832Z,100568.25
2019-03-09T10:48:14.245Z,100566.05
2019-03-09T10:50:42.668Z,100560.92
2019-03-09T10:53:11.102Z,100561.41
2019-03-09T10:55:39.590Z,100562.77
2019-03-09T10:58:08.030Z,100547.36
2019-03-09T11:00:41.093Z,100547.18
2019-03-09T11:03:09.592Z,100544.40
2019-03-09T11:05:38.032Z,100534.66
2019-03-09T11:08:06.543Z,100534.66
2019-03-09T11:10:34.956Z,100530.73
2019-03-09T11:13:03.450Z,100531.05
2019-03-09T11:15:31.926Z,100542.45
2019-03-09T11:18:00.332Z,100546.36
2019-03-09T11:20:28.769Z,100558.91
2019-03-09T11:22:57.209Z,100560.27
2019-03-09T11:25:25.623Z,100567.08
2019-03-09T11:27:54.080Z,100573.72
2019-03-09T11:30:25.114Z,100569.78
2019-03-09T11:32:53.700Z,100561.61
2019-03-09T11:35:22.127Z,100571.70
2019-03-09T11:37:50.573Z,100577.86
2019-03-09T11:40:19.153Z,100568.81
2019-03-09T11:42:47.572Z,100567.14
2019-03-09T11:45:17.750Z,100567.16
2019-03-09T11:47:46.184Z,100564.49
2019-03-09T11:50:17.955Z,100561.97
2019-03-09T11:52:47.051Z,100573.58
2019-03-09T11:55:17.320Z,100569.33
2019-03-09T11:57:45.805Z,100564.41
2019-03-09T12:00:24.333Z,100579.56
2019-03-09T12:02:52.794Z,100576.31
2019-03-09T12:05:21.219Z,100594.25
2019-03-09T12:07:49.679Z,100586.23
2019-03-09T12:10:18.203Z,100584.33
2019-03-09T12:12:46.759Z,100566.45
2019-03-09T12:15:17.200Z,100579.25
2019-03-09T12:17:45.612Z,100566.69
2019-03-09T12:20:17.032Z,100563.59
2019-03-09T12:22:45.531Z,100553.06
2019-03-09T12:25:18.219Z,100554.70
2019-03-09T12:27:46.648Z,100541.73
2019-03-09T12:30:19.226Z,100518.50
2019-03-09T12:32:47.822Z,100512.21
2019-03-09T12:35:16.416Z,100516.25
2019-03-09T12:37:44.937Z,100522.39
2019-03-09T12:40:20.633Z,100497.64
2019-03-09T12:42:49.081Z,100480.23
2019-03-09T12:45:17.985Z,100477.34
2019-03-09T12:47:46.573Z,100471.17
2019-03-09T12:50:17.748Z,100463.50
2019-03-09T12:52:46.456Z,100448.66
2019-03-09T12:55:15.036Z,100453.28
2019-03-09T12:57:43.466Z,100401.66
2019-03-09T13:00:14.846Z,100366.17
2019-03-09T13:02:43.278Z,100355.09
2019-03-09T13:05:11.782Z,100406.17
2019-03-09T13:07:40.224Z,100416.03
2019-03-09T13:10:09.511Z,100424.03
2019-03-09T13:12:38.035Z,100420.44
2019-03-09T13:15:08.098Z,100393.19
2019-03-09T13:17:36.504Z,100379.23
2019-03-09T13:20:07.454Z,100377.16
2019-03-09T13:22:35.878Z,100383.64
2019-03-09T13:25:05.946Z,100382.44
2019-03-09T13:27:34.434Z,100379.87
2019-03-09T13:30:03.160Z,100387.00
2019-03-09T13:32:33.419Z,100384.94
2019-03-09T13:35:01.712Z,100372.83
2019-03-09T13:37:30.152Z,100372.34
2019-03-09T13:39:58.582Z,100372.83
2019-03-09T13:42:27.015Z,100370.61
2019-03-09T13:44:55.425Z,100373.33
2019-03-09T13:47:23.880Z,100375.55
2019-03-09T13:49:52.341Z,100367.05
2019-03-09T13:52:20.729Z,100358.72
2019-03-09T13:54:49.208Z,100353.05
2019-03-09T13:57:17.686Z,100348.63
2019-03-09T13:59:46.090Z,100345.91
2019-03-09T14:02:14.541Z,100346.25
2019-03-09T14:04:42.981Z,100344.55
2019-03-09T14:07:11.412Z,100341.98
2019-03-09T14:09:39.898Z,100327.50
2019-03-09T14:12:08.328Z,100321.34
2019-03-09T14:14:36.754Z,100317.42
2019-03-09T14:17:05.204Z,100313.86
2019-03-09T14:19:33.647Z,100305.69
2019-03-09T14:22:02.095Z,100317.58
2019-03-09T14:24:30.518Z,100324.70
2019-03-09T14:26:58.956Z,100319.79
2019-03-09T14:29:27.373Z,100311.94
2019-03-09T14:31:55.799Z,100310.58
2019-03-09T14:34:24.259Z,100292.01
2019-03-09T14:36:52.735Z,100285.20
2019-03-09T14:39:21.173Z,100282.63
2019-03-09T14:41:49.599Z,100280.41
2019-03-09T14:44:18.064Z,100271.03
2019-03-09T14:46:46.497Z,100272.06
2019-03-09T14:49:14.960Z,100267.48
2019-03-09T14:51:43.382Z,100264.94
2019-03-09T14:54:11.807Z,100265.97
2019-03-09T14:56:40.246Z,100266.63
2019-03-09T14:59:08.700Z,100258.13
2019-03-09T15:01:37.126Z,100272.08
2019-03-09T15:04:05.759Z,100278.39
2019-03-09T15:06:34.218Z,100283.34
2019-03-09T15:09:02.637Z,100304.59
2019-03-09T15:11:31.092Z,100305.63
2019-03-09T15:13:59.507Z,100329.64
2019-03-09T15:16:27.957Z,100305.47
2019-03-09T15:18:56.406Z,100292.55
2019-03-09T15:21:24.976Z,100298.67
2019-03-09T15:23:53.426Z,100271.98
2019-03-09T15:26:21.878Z,100278.67
2019-03-09T15:28:50.280Z,100274.75
2019-03-09T15:31:18.724Z,100280.74
2019-03-09T15:33:47.192Z,100273.24
2019-03-09T15:36:15.600Z,100281.78
2019-03-09T15:38:44.070Z,100271.22
2019-03-09T15:41:12.544Z,100271.22
2019-03-09T15:43:40.947Z,100275.64
2019-03-09T15:46:09.378Z,100285.38
2019-03-09T15:48:37.806Z,100293.72
2019-03-09T15:51:06.234Z,100300.86
2019-03-09T15:53:34.663Z,100304.95
2019-03-09T15:56:03.071Z,100302.89
2019-03-09T15:58:31.578Z,100304.62
2019-03-09T16:01:00.026Z,100302.89
2019-03-09T16:03:28.459Z,100293.34
2019-03-09T16:05:56.910Z,100295.58
2019-03-09T16:08:25.332Z,100283.31
2019-03-09T16:10:53.853Z,100283.65
2019-03-09T16:13:24.319Z,100287.41
2019-03-09T16:15:52.430Z,100269.91
2019-03-09T16:18:20.878Z,100260.74
2019-03-09T16:20:49.295Z,100250.84
2019-03-09T16:23:17.760Z,100249.31
2019-03-09T16:25:46.170Z,100244.72
2019-03-09T16:28:14.616Z,100229.41
2019-03-09T16:30:43.109Z,100246.09
2019-03-09T16:33:11.540Z,100225.48
2019-03-09T16:35:39.973Z,100239.94
2019-03-09T16:38:08.394Z,100236.22
2019-03-09T16:40:40.549Z,100231.27
2019-03-09T16:43:07.400Z,100254.59
2019-03-09T16:45:35.823Z,100275.89
2019-03-09T16:48:04.255Z,100285.23
2019-03-09T16:50:32.698Z,100295.09
2019-03-09T16:53:01.119Z,100293.39
2019-03-09T16:55:29.553Z,100297.44
2019-03-09T16:57:58.017Z,100305.27
2019-03-09T17:00:26.438Z,100305.61
2019-03-09T17:02:54.929Z,100311.06
2019-03-09T17:05:23.361Z,100333.89
2019-03-09T17:07:51.764Z,100337.80
2019-03-09T17:10:20.245Z,100345.77
2019-03-09T17:12:48.642Z,100355.13
2019-03-09T17:15:19.564Z,100356.65
2019-03-09T17:17:48.005Z,100355.08
2019-03-09T17:20:17.872Z,100346.02
2019-03-09T17:22:46.319Z,100339.53
2019-03-09T17:25:15.190Z,100355.53
2019-03-09T17:27:43.630Z,100371.70
2019-03-09T17:30:19.634Z,100366.09
2019-03-09T17:32:48.403Z,100375.95
2019-03-09T17:35:17.101Z,100375.73
2019-03-09T17:37:45.556Z,100383.75
2019-03-09T17:40:17.603Z,100384.47
2019-03-09T17:42:46.112Z,100397.62
2019-03-09T17:45:20.142Z,100397.94
2019-03-09T17:47:48.686Z,100389.77
2019-03-09T17:50:17.243Z,100396.89
2019-03-09T17:52:45.829Z,100403.70
2019-03-09T17:55:14.255Z,100415.62
2019-03-09T17:57:42.821Z,100415.06
2019-03-09T18:00:17.125Z,100414.73
2019-03-09T18:02:45.531Z,100435.81
2019-03-09T18:05:14.125Z,100428.66
2019-03-09T18:07:42.536Z,100436.46
2019-03-09T18:10:19.971Z,100442.59
2019-03-09T18:12:48.385Z,100442.22
2019-03-09T18:15:16.849Z,100445.47
2019-03-09T18:17:45.259Z,100440.52
2019-03-09T18:20:13.939Z,100443.86
2019-03-09T18:22:42.345Z,100448.97
2019-03-09T18:25:11.014Z,100444.89
2019-03-09T18:27:39.451Z,100453.05
2019-03-09T18:30:10.415Z,100472.27
2019-03-09T18:32:38.858Z,100469.70
2019-03-09T18:35:10.329Z,100478.90
2019-03-09T18:37:38.782Z,100480.75
2019-03-09T18:40:10.253Z,100482.61
2019-03-09T18:42:38.696Z,100494.52
2019-03-09T18:45:10.539Z,100496.53
2019-03-09T18:47:38.947Z,100491.09
2019-03-09T18:50:07.919Z,100484.81
2019-03-09T18:52:36.407Z,100500.62
2019-03-09T18:55:06.187Z,100503.34
2019-03-09T18:57:34.605Z,100507.09
2019-03-09T19:00:04.478Z,100515.97
2019-03-09T19:02:32.901Z,100527.84
2019-03-09T19:05:01.323Z,100520.70
2019-03-09T19:07:29.751Z,100532.45
2019-03-09T19:09:58.169Z,100526.80
2019-03-09T19:12:26.606Z,100528.00
2019-03-09T19:14:55.013Z,100542.64
2019-03-09T19:17:23.459Z,100550.66
2019-03-09T19:19:51.887Z,100550.31
2019-03-09T19:22:20.317Z,100549.78
2019-03-09T19:24:48.728Z,100573.95
2019-03-09T19:27:17.185Z,100569.37
2019-03-09T19:29:45.614Z,100578.90
2019-03-09T19:32:14.116Z,100574.94
2019-03-09T19:34:42.566Z,100572.09
2019-03-09T19:37:10.994Z,100570.85
2019-03-09T19:39:39.455Z,100569.49
2019-03-09T19:42:07.891Z,100579.39
2019-03-09T19:44:36.381Z,100580.27
2019-03-09T19:47:04.783Z,100576.83
2019-03-09T19:49:33.216Z,100581.62
2019-03-09T19:52:01.641Z,100578.19
2019-03-09T19:54:30.069Z,100580.38
2019-03-09T19:56:58.513Z,100580.75
2019-03-09T19:59:26.959Z,100574.10
2019-03-09T20:01:55.385Z,100565.94
2019-03-09T20:04:23.833Z,100575.46
2019-03-09T20:06:52.260Z,100583.97
2019-03-09T20:09:20.715Z,100579.17
2019-03-09T20:11:49.133Z,100580.53
2019-03-09T20:14:17.581Z,100575.61
2019-03-09T20:16:46.021Z,100585.14
2019-03-09T20:19:15.371Z,100577.81
2019-03-09T20:21:43.862Z,100572.02
2019-03-09T20:24:12.297Z,100573.39
2019-03-09T20:26:40.721Z,100576.98
2019-03-09T20:29:09.162Z,100577.81
2019-03-09T20:31:37.594Z,100581.41
2019-03-09T20:34:06.167Z,100574.25
2019-03-09T20:36:34.580Z,100586.51
2019-03-09T20:39:03.008Z,100588.36
2019-03-09T20:41:31.427Z,100581.89
2019-03-09T20:43:59.858Z,100590.06
2019-03-09T20:46:28.285Z,100594.86
2019-03-09T20:48:56.697Z,100592.14
2019-03-09T20:51:25.134Z,100598.23
2019-03-09T20:53:55.082Z,100597.25
2019-03-09T20:56:23.494Z,100595.02
2019-03-09T20:58:51.928Z,100602.31
2019-03-09T21:01:20.353Z,100600.13
2019-03-09T21:03:48.796Z,100597.39
2019-03-09T21:06:17.256Z,100593.31
2019-03-09T21:08:45.694Z,100603.67
2019-03-09T21:11:14.204Z,100606.06
2019-03-09T21:13:42.615Z,100619.03
2019-03-09T21:16:11.048Z,100622.09
2019-03-09T21:18:39.488Z,100629.92
2019-03-09T21:21:07.926Z,100629.55
2019-03-09T21:23:36.352Z,100627.69
2019-03-09T21:26:04.796Z,100629.05
2019-03-09T21:28:33.230Z,100629.92
2019-03-09T21:31:01.672Z,100628.03
2019-03-09T21:33:30.119Z,100629.55
2019-03-09T21:35:58.559Z,100627.69
2019-03-09T21:38:26.997Z,100636.73
2019-03-09T21:40:55.430Z,100642.17
2019-03-09T21:43:23.843Z,100643.53
2019-03-09T21:45:52.269Z,100653.41
2019-03-09T21:48:20.722Z,100652.91
2019-03-09T21:50:49.178Z,100648.83
2019-03-09T21:53:17.582Z,100646.60
2019-03-09T21:55:46.011Z,100646.26
2019-03-09T21:58:14.459Z,100649.47
2019-03-09T22:00:42.864Z,100663.09
2019-03-09T22:03:11.267Z,100648.61
2019-03-09T22:05:39.714Z,100662.94
2019-03-09T22:08:08.129Z,100667.40
2019-03-09T22:10:36.548Z,100656.50
2019-03-09T22:13:05.056Z,100662.64
2019-03-09T22:15:33.478Z,100656.84
2019-03-09T22:18:01.905Z,100657.72
2019-03-09T22:20:30.347Z,100659.91
2019-03-09T22:22:58.774Z,100666.38
2019-03-09T22:25:27.247Z,100656.84
2019-03-09T22:27:56.960Z,100656.50
2019-03-09T22:30:25.561Z,100661.95
2019-03-09T22:32:53.983Z,100655.98
2019-03-09T22:35:22.499Z,100658.85
2019-03-09T22:37:50.927Z,100662.94
2019-03-09T22:40:20.162Z,100657.00
2019-03-09T22:42:48.591Z,100657.87
2019-03-09T22:45:17.107Z,100652.77
2019-03-09T22:47:45.538Z,100653.41
2019-03-09T22:50:18.986Z,100639.30
2019-03-09T22:52:47.754Z,100643.23
2019-03-09T22:55:16.442Z,100638.81
2019-03-09T22:57:44.869Z,100634.34
2019-03-09T23:00:21.977Z,100622.09
2019-03-09T23:02:50.407Z,100623.83
2019-03-09T23:05:18.970Z,100625.19
2019-03-09T23:07:47.388Z,100621.11
2019-03-09T23:10:20.626Z,100621.45
2019-03-09T23:12:49.061Z,100614.48
2019-03-09T23:15:18.203Z,100611.27
2019-03-09T23:17:46.970Z,100606.81
2019-03-09T23:20:16.561Z,100604.96
2019-03-09T23:22:44.975Z,100601.02
2019-03-09T23:25:14.430Z,100600.16
2019-03-09T23:27:43.107Z,100597.28
2019-03-09T23:30:22.035Z,100601.74
2019-03-09T23:32:50.551Z,100601.74
2019-03-09T23:35:18.972Z,100600.38
2019-03-09T23:37:47.939Z,100590.84
2019-03-09T23:40:20.941Z,100582.31
2019-03-09T23:42:49.391Z,100577.88
2019-03-09T23:45:22.378Z,100578.38
2019-03-09T23:47:51.137Z,100573.45
2019-03-09T23:50:19.725Z,100572.44
2019-03-09T23:52:48.501Z,100563.92
2019-03-09T23:55:21.857Z,100565.63
2019-03-09T23:57:48.429Z,100556.59
